createdAt,value
2018-08-01T00:01:10.211Z,93.10
2018-08-01T00:03:38.726Z,95.10
2018-08-01T00:06:07.496Z,96.80
2018-08-01T00:08:36.066Z,99.90
2018-08-01T00:11:04.570Z,98.50
2018-08-01T00:13:33.056Z,99.90
2018-08-01T00:16:01.547Z,99.10
2018-08-01T00:18:30.112Z,99.90
2018-08-01T00:20:58.577Z,99.90
2018-08-01T00:23:27.078Z,99.90
2018-08-01T00:25:55.648Z,99.90
2018-08-01T00:28:24.107Z,99.90
2018-08-01T00:30:52.600Z,99.90
2018-08-01T00:33:21.115Z,99.90
2018-08-01T00:35:49.597Z,98.00
2018-08-01T00:38:18.078Z,96.10
2018-08-01T00:40:46.539Z,98.60
2018-08-01T00:43:15.040Z,99.90
2018-08-01T00:45:43.507Z,97.20
2018-08-01T00:48:12.043Z,99.90
2018-08-01T00:50:40.502Z,95.30
2018-08-01T00:53:09.023Z,96.50
2018-08-01T00:55:37.487Z,87.60
2018-08-01T00:58:05.956Z,95.10
2018-08-01T01:00:34.547Z,94.70
2018-08-01T01:03:03.018Z,92.30
2018-08-01T01:05:31.519Z,72.70
2018-08-01T01:08:00.108Z,87.40
2018-08-01T01:10:28.608Z,90.40
2018-08-01T01:12:57.088Z,89.10
2018-08-01T01:15:25.639Z,67.10
2018-08-01T01:17:54.105Z,68.90
2018-08-01T01:20:22.561Z,69.80
2018-08-01T01:22:51.092Z,48.40
2018-08-01T01:25:19.557Z,38.60
2018-08-01T01:27:48.052Z,71.40
2018-08-01T01:30:16.634Z,51.00
2018-08-01T01:32:45.107Z,36.90
2018-08-01T01:35:13.549Z,56.50
2018-08-01T01:37:42.039Z,40.80
2018-08-01T01:40:10.515Z,44.20
2018-08-01T01:42:38.991Z,36.90
2018-08-01T01:45:07.490Z,46.10
2018-08-01T01:47:35.994Z,54.50
2018-08-01T01:50:04.579Z,41.70
2018-08-01T01:52:45.546Z,26.50
2018-08-01T01:55:14.024Z,50.80
2018-08-01T01:57:42.583Z,23.50
2018-08-01T02:00:11.230Z,4.70
2018-08-01T02:02:40.496Z,1.00
2018-08-01T02:05:08.950Z,1.00
2018-08-01T02:07:37.675Z,39.40
2018-08-01T02:10:11.455Z,13.20
2018-08-01T02:12:39.954Z,1.00
2018-08-01T02:15:08.468Z,1.00
2018-08-01T02:17:36.901Z,1.00
2018-08-01T02:20:05.369Z,1.00
2018-08-01T02:22:33.899Z,1.00
2018-08-01T02:25:02.360Z,8.00
2018-08-01T02:27:30.813Z,1.00
2018-08-01T02:29:59.283Z,9.60
2018-08-01T02:32:27.843Z,5.70
2018-08-01T02:34:56.302Z,1.00
2018-08-01T02:37:24.972Z,1.00
2018-08-01T02:39:54.133Z,1.00
2018-08-01T02:42:22.588Z,9.00
2018-08-01T02:44:51.109Z,1.00
2018-08-01T02:47:19.616Z,1.00
2018-08-01T02:49:48.092Z,1.00
2018-08-01T02:52:16.557Z,1.00
2018-08-01T02:54:45.060Z,1.00
2018-08-01T02:57:13.544Z,1.00
2018-08-01T02:59:42.032Z,99.90
2018-08-01T03:02:10.476Z,99.90
2018-08-01T03:04:38.994Z,1.00
2018-08-01T03:07:07.650Z,1.00
2018-08-01T03:09:36.280Z,1.00
2018-08-01T03:12:05.276Z,1.00
2018-08-01T03:14:34.208Z,1.00
2018-08-01T03:17:02.675Z,1.00
2018-08-01T03:19:31.161Z,1.00
2018-08-01T03:21:59.872Z,99.90
2018-08-01T03:24:28.352Z,99.90
2018-08-01T03:26:56.851Z,99.90
2018-08-01T03:29:25.686Z,44.20
2018-08-01T03:31:54.159Z,99.90
2018-08-01T03:34:22.609Z,99.90
2018-08-01T03:36:51.123Z,99.90
2018-08-01T03:39:19.707Z,99.90
2018-08-01T03:41:48.180Z,99.90
2018-08-01T03:44:16.676Z,99.90
2018-08-01T03:46:45.320Z,99.90
2018-08-01T03:49:13.782Z,99.90
2018-08-01T03:51:42.246Z,99.90
2018-08-01T03:56:39.911Z,99.90
2018-08-01T03:59:09.127Z,37.60
2018-08-01T04:01:37.594Z,94.40
2018-08-01T04:04:06.119Z,86.70
2018-08-01T04:06:34.590Z,73.10
2018-08-01T04:09:03.178Z,93.20
2018-08-01T04:11:31.686Z,99.90
2018-08-01T04:14:00.139Z,99.90
2018-08-01T04:16:28.668Z,99.90
2018-08-01T04:18:57.154Z,99.90
2018-08-01T04:21:25.622Z,99.90
2018-08-01T04:23:54.093Z,99.90
2018-08-01T04:26:22.614Z,99.90
2018-08-01T04:28:51.094Z,99.90
2018-08-01T04:31:19.540Z,99.90
2018-08-01T04:33:48.050Z,99.90
2018-08-01T04:36:16.535Z,99.90
2018-08-01T04:38:45.007Z,99.90
2018-08-01T04:41:13.528Z,99.90
2018-08-01T04:43:41.983Z,99.90
2018-08-01T04:46:10.432Z,99.90
2018-08-01T04:48:38.958Z,99.90
2018-08-01T04:51:07.707Z,99.90
2018-08-01T04:53:36.194Z,99.90
2018-08-01T04:56:04.916Z,99.90
2018-08-01T04:58:33.407Z,99.90
2018-08-01T05:01:02.003Z,99.90
2018-08-01T05:03:30.481Z,99.90
2018-08-01T05:05:59.035Z,99.90
2018-08-01T05:08:27.634Z,99.90
2018-08-01T05:10:56.229Z,99.90
2018-08-01T05:13:24.719Z,99.90
2018-08-01T05:18:21.523Z,99.90
2018-08-01T05:20:50.055Z,99.90
2018-08-01T05:23:18.560Z,99.90
2018-08-01T05:25:47.037Z,99.90
2018-08-01T05:28:15.563Z,99.90
2018-08-01T05:30:44.107Z,99.90
2018-08-01T05:33:12.608Z,99.90
2018-08-01T05:35:41.080Z,99.90
2018-08-01T05:38:09.573Z,98.30
2018-08-01T05:40:38.059Z,95.80
2018-08-01T05:43:06.557Z,99.90
2018-08-01T05:45:35.018Z,99.90
2018-08-01T05:48:03.490Z,99.90
2018-08-01T05:50:31.988Z,99.90
2018-08-01T05:53:00.487Z,99.90
2018-08-01T05:55:28.987Z,99.90
2018-08-01T05:57:57.515Z,99.90
2018-08-01T06:00:26.014Z,99.90
2018-08-01T06:02:54.489Z,99.90
2018-08-01T06:05:22.973Z,99.90
2018-08-01T06:07:51.417Z,99.90
2018-08-01T06:10:19.899Z,99.90
2018-08-01T06:12:48.342Z,99.90
2018-08-01T06:15:16.876Z,99.90
2018-08-01T06:17:45.367Z,99.90
2018-08-01T06:20:14.377Z,99.90
2018-08-01T06:22:42.859Z,99.90
2018-08-01T06:25:11.360Z,99.90
2018-08-01T06:27:39.864Z,99.90
2018-08-01T06:30:08.452Z,99.90
2018-08-01T06:32:36.930Z,97.80
2018-08-01T06:35:05.547Z,91.90
2018-08-01T06:37:34.035Z,23.00
2018-08-01T06:40:02.525Z,1.00
2018-08-01T06:42:31.403Z,1.00
2018-08-01T06:44:59.892Z,1.00
2018-08-01T06:47:28.413Z,1.00
2018-08-01T06:49:56.949Z,99.90
2018-08-01T06:52:25.490Z,53.50
2018-08-01T06:54:53.952Z,99.90
2018-08-01T06:57:22.463Z,99.90
2018-08-01T06:59:50.913Z,23.20
2018-08-01T07:02:19.409Z,99.90
2018-08-01T07:04:47.874Z,1.00
2018-08-01T07:07:16.403Z,1.00
2018-08-01T07:09:44.883Z,99.90
2018-08-01T07:12:16.651Z,99.90
2018-08-01T07:14:46.126Z,99.90
2018-08-01T07:17:14.596Z,99.90
2018-08-01T07:19:43.117Z,99.90
2018-08-01T07:22:11.684Z,1.00
2018-08-01T07:24:40.157Z,99.90
2018-08-01T07:27:08.650Z,99.90
2018-08-01T07:29:37.158Z,61.40
2018-08-01T07:32:05.660Z,99.90
2018-08-01T07:34:34.376Z,99.90
2018-08-01T07:37:02.917Z,99.90
2018-08-01T07:39:31.405Z,99.90
2018-08-01T07:41:59.885Z,99.90
2018-08-01T07:44:28.430Z,1.00
2018-08-01T07:46:57.512Z,99.90
2018-08-01T07:49:26.018Z,1.00
2018-08-01T07:51:54.546Z,99.90
2018-08-01T07:54:23.021Z,99.90
2018-08-01T07:56:51.520Z,99.90
2018-08-01T07:59:19.973Z,1.00
2018-08-01T08:01:48.519Z,1.00
2018-08-01T08:04:17.011Z,1.00
2018-08-01T08:06:45.515Z,1.00
2018-08-01T08:09:14.210Z,99.90
2018-08-01T08:11:42.786Z,1.00
2018-08-01T08:14:11.265Z,99.90
2018-08-01T08:16:40.125Z,1.00
2018-08-01T08:19:08.694Z,99.90
2018-08-01T08:21:37.330Z,99.90
2018-08-01T08:24:05.865Z,1.00
2018-08-01T08:26:34.358Z,1.00
2018-08-01T08:29:03.048Z,99.90
2018-08-01T08:31:31.534Z,95.80
2018-08-01T08:34:00.032Z,1.00
2018-08-01T08:36:28.532Z,99.90
2018-08-01T08:38:57.051Z,99.90
2018-08-01T08:41:25.573Z,19.50
2018-08-01T08:43:54.156Z,1.00
2018-08-01T08:46:22.656Z,1.00
2018-08-01T08:48:51.293Z,99.90
2018-08-01T08:51:19.850Z,99.90
2018-08-01T08:53:48.494Z,99.90
2018-08-01T08:56:17.193Z,99.90
2018-08-01T08:58:45.717Z,99.90
2018-08-01T09:01:14.328Z,99.90
2018-08-01T09:03:42.834Z,99.90
2018-08-01T09:06:11.724Z,99.90
2018-08-01T09:08:40.313Z,99.90
2018-08-01T09:11:09.266Z,99.90
2018-08-01T09:13:37.835Z,99.90
2018-08-01T09:16:06.517Z,99.90
2018-08-01T09:18:35.081Z,99.90
2018-08-01T09:21:04.239Z,99.90
2018-08-01T09:23:32.811Z,99.90
2018-08-01T09:26:01.312Z,99.90
2018-08-01T09:28:30.157Z,99.90
2018-08-01T09:30:58.630Z,99.90
2018-08-01T09:33:27.477Z,99.90
2018-08-01T09:35:56.034Z,99.90
2018-08-01T09:38:24.654Z,99.90
2018-08-01T09:40:53.183Z,99.90
2018-08-01T09:43:21.694Z,99.90
2018-08-01T09:45:50.575Z,99.90
2018-08-01T09:48:19.123Z,99.90
2018-08-01T09:50:47.598Z,99.90
2018-08-01T09:53:16.359Z,99.90
2018-08-01T09:56:17.740Z,99.90
2018-08-01T09:58:46.205Z,99.90
2018-08-01T10:01:31.419Z,99.90
2018-08-01T10:03:59.953Z,99.90
2018-08-01T10:08:57.519Z,99.90
2018-08-01T10:11:26.082Z,99.90
2018-08-01T10:13:54.562Z,99.90
2018-08-01T10:16:23.069Z,99.90
2018-08-01T10:18:51.750Z,99.90
2018-08-01T10:23:53.741Z,99.90
2018-08-01T10:26:22.238Z,99.90
2018-08-01T10:28:50.829Z,99.90
2018-08-01T10:31:19.354Z,99.90
2018-08-01T10:33:47.840Z,99.90
2018-08-01T10:36:16.303Z,99.90
2018-08-01T10:38:44.793Z,99.90
2018-08-01T10:41:13.355Z,99.90
2018-08-01T10:43:41.938Z,99.90
2018-08-01T10:46:10.393Z,99.90
2018-08-01T10:48:38.900Z,99.90
2018-08-01T10:51:07.406Z,99.90
2018-08-01T10:53:36.021Z,99.90
2018-08-01T10:56:04.518Z,99.90
2018-08-01T10:58:33.009Z,99.90
2018-08-01T11:01:01.471Z,99.90
2018-08-01T11:03:29.952Z,99.90
2018-08-01T11:05:58.504Z,99.90
2018-08-01T11:08:27.103Z,99.90
2018-08-01T11:10:55.687Z,99.90
2018-08-01T11:13:30.403Z,99.90
2018-08-01T11:15:58.886Z,99.90
2018-08-01T11:18:27.433Z,99.90
2018-08-01T11:20:55.943Z,99.90
2018-08-01T11:23:24.499Z,99.90
2018-08-01T11:25:53.191Z,99.90
2018-08-01T11:28:21.722Z,99.90
2018-08-01T11:30:50.414Z,99.90
2018-08-01T11:33:19.250Z,99.90
2018-08-01T11:35:47.784Z,99.90
2018-08-01T11:38:16.256Z,99.90
2018-08-01T11:40:44.749Z,99.90
2018-08-01T11:43:13.264Z,99.90
2018-08-01T11:45:41.741Z,99.90
2018-08-01T11:48:10.272Z,99.90
2018-08-01T11:50:38.868Z,99.90
2018-08-01T11:53:07.461Z,99.90
2018-08-01T11:55:36.063Z,99.90
2018-08-01T11:58:04.594Z,99.90
2018-08-01T12:00:33.081Z,99.90
2018-08-01T12:03:02.483Z,99.90
2018-08-01T12:05:31.010Z,99.90
2018-08-01T12:07:59.496Z,99.90
2018-08-01T12:10:28.668Z,99.90
2018-08-01T12:12:58.138Z,99.90
2018-08-01T12:15:26.699Z,99.90
2018-08-01T12:17:55.212Z,99.90
2018-08-01T12:20:23.908Z,99.90
2018-08-01T12:22:52.355Z,99.90
2018-08-01T12:25:20.928Z,99.90
2018-08-01T12:27:49.407Z,99.90
2018-08-01T12:30:17.904Z,99.90
2018-08-01T12:32:46.487Z,99.90
2018-08-01T12:35:15.000Z,99.90
2018-08-01T12:37:43.572Z,99.90
2018-08-01T12:40:13.699Z,99.90
2018-08-01T12:42:42.688Z,99.90
2018-08-01T12:47:39.520Z,99.90
2018-08-01T12:50:08.833Z,99.90
2018-08-01T12:52:37.378Z,99.90
2018-08-01T12:55:05.942Z,99.90
2018-08-01T12:57:34.430Z,99.90
2018-08-01T13:00:02.964Z,99.90
2018-08-01T13:02:31.588Z,99.90
2018-08-01T13:05:00.110Z,99.90
2018-08-01T13:07:28.595Z,99.90
2018-08-01T13:09:57.209Z,99.90
2018-08-01T13:12:25.748Z,99.90
2018-08-01T13:14:54.263Z,99.90
2018-08-01T13:17:22.807Z,99.90
2018-08-01T13:19:51.330Z,99.90
2018-08-01T13:22:19.830Z,99.90
2018-08-01T13:24:48.319Z,99.90
2018-08-01T13:27:16.905Z,99.90
2018-08-01T13:29:45.445Z,99.90
2018-08-01T13:32:13.976Z,99.90
2018-08-01T13:34:42.456Z,99.90
2018-08-01T13:37:10.962Z,99.90
2018-08-01T13:39:39.461Z,99.90
2018-08-01T13:42:08.103Z,99.90
2018-08-01T13:44:36.666Z,99.90
2018-08-01T13:47:05.202Z,99.90
2018-08-01T13:49:33.734Z,99.90
2018-08-01T13:52:02.217Z,99.90
2018-08-01T13:54:30.726Z,99.90
2018-08-01T13:56:59.213Z,99.90
2018-08-01T13:59:27.875Z,99.90
2018-08-01T14:01:56.431Z,99.90
2018-08-01T14:04:24.984Z,99.90
2018-08-01T14:06:53.590Z,99.90
2018-08-01T14:09:22.121Z,99.90
2018-08-01T14:14:18.879Z,99.90
2018-08-01T14:16:47.391Z,99.90
2018-08-01T14:19:15.973Z,99.90
2018-08-01T14:21:44.433Z,99.90
2018-08-01T14:24:12.962Z,99.90
2018-08-01T14:26:41.442Z,99.90
2018-08-01T14:29:10.048Z,99.90
2018-08-01T14:31:39.168Z,99.90
2018-08-01T14:34:07.806Z,99.90
2018-08-01T14:36:36.338Z,99.90
2018-08-01T14:39:07.690Z,99.90
2018-08-01T14:41:36.421Z,99.90
2018-08-01T14:44:05.667Z,99.90
2018-08-01T14:46:34.163Z,99.90
2018-08-01T14:49:03.210Z,99.90
2018-08-01T14:51:32.126Z,99.90
2018-08-01T14:54:01.451Z,99.90
2018-08-01T14:56:30.580Z,99.90
2018-08-01T14:58:59.447Z,99.90
2018-08-01T15:01:27.986Z,99.90
2018-08-01T15:03:56.665Z,99.90
2018-08-01T15:06:25.208Z,99.90
2018-08-01T15:08:53.911Z,99.90
2018-08-01T15:11:22.676Z,99.90
2018-08-01T15:13:51.532Z,99.90
2018-08-01T15:16:20.062Z,99.90
2018-08-01T15:18:48.587Z,99.90
2018-08-01T15:21:17.174Z,99.90
2018-08-01T15:23:45.711Z,99.90
2018-08-01T15:26:14.967Z,99.90
2018-08-01T15:28:43.109Z,99.90
2018-08-01T15:31:11.687Z,99.90
2018-08-01T15:33:41.014Z,99.90
2018-08-01T15:36:09.495Z,99.90
2018-08-01T15:38:38.021Z,99.90
2018-08-01T15:41:06.749Z,99.90
2018-08-01T15:43:35.267Z,99.90
2018-08-01T15:46:03.841Z,99.90
2018-08-01T15:48:33.805Z,99.90
2018-08-01T15:51:02.965Z,99.90
2018-08-01T15:53:31.786Z,99.90
2018-08-01T15:56:00.410Z,99.90
2018-08-01T15:58:29.056Z,99.90
2018-08-01T16:00:57.734Z,99.90
2018-08-01T16:03:26.532Z,99.90
2018-08-01T16:05:55.102Z,99.90
2018-08-01T16:08:23.654Z,99.90
2018-08-01T16:10:52.151Z,99.90
2018-08-01T16:13:20.655Z,99.90
2018-08-01T16:15:49.172Z,99.90
2018-08-01T16:18:17.652Z,99.90
2018-08-01T16:23:14.642Z,99.90
2018-08-01T16:25:43.159Z,99.90
2018-08-01T16:28:11.766Z,99.90
2018-08-01T16:30:40.276Z,99.90
2018-08-01T16:33:08.787Z,99.90
2018-08-01T16:35:37.366Z,99.90
2018-08-01T16:38:06.201Z,99.90
2018-08-01T16:40:35.031Z,99.90
2018-08-01T16:43:03.592Z,99.90
2018-08-01T16:48:04.481Z,99.90
2018-08-01T16:50:33.931Z,99.90
2018-08-01T16:53:03.469Z,99.90
2018-08-01T16:55:32.655Z,99.90
2018-08-01T16:58:03.365Z,99.90
2018-08-01T17:00:32.476Z,99.90
2018-08-01T17:03:01.729Z,99.90
2018-08-01T17:05:31.419Z,99.90
2018-08-01T17:08:00.871Z,99.90
2018-08-01T17:10:29.826Z,99.90
2018-08-01T17:12:58.637Z,99.90
2018-08-01T17:15:27.198Z,99.90
2018-08-01T17:17:55.817Z,99.90
2018-08-01T17:20:24.425Z,99.90
2018-08-01T17:22:52.953Z,99.90
2018-08-01T17:25:21.539Z,99.90
2018-08-01T17:27:50.064Z,99.90
2018-08-01T17:30:18.644Z,99.90
2018-08-01T17:32:47.150Z,99.90
2018-08-01T17:35:15.749Z,99.90
2018-08-01T17:37:44.245Z,99.90
2018-08-01T17:40:12.772Z,99.90
2018-08-01T17:42:41.278Z,99.90
2018-08-01T17:45:09.810Z,99.90
2018-08-01T17:47:38.342Z,99.90
2018-08-01T17:50:06.988Z,99.90
2018-08-01T17:52:35.715Z,99.90
2018-08-01T17:55:04.301Z,99.90
2018-08-01T17:57:32.864Z,99.90
2018-08-01T18:00:01.410Z,99.90
2018-08-01T18:02:30.336Z,99.90
2018-08-01T18:04:58.951Z,99.90
2018-08-01T18:07:27.487Z,99.90
2018-08-01T18:09:56.155Z,99.90
2018-08-01T18:12:24.776Z,99.90
2018-08-01T18:14:53.318Z,99.90
2018-08-01T18:17:21.830Z,99.90
2018-08-01T18:19:51.266Z,99.90
2018-08-01T18:22:20.106Z,99.90
2018-08-01T18:24:48.825Z,99.90
2018-08-01T18:27:17.343Z,99.90
2018-08-01T18:29:46.667Z,99.90
2018-08-01T18:32:15.585Z,99.90
2018-08-01T18:34:44.322Z,99.90
2018-08-01T18:37:13.028Z,99.90
2018-08-01T18:39:41.636Z,99.90
2018-08-01T18:42:10.194Z,99.90
2018-08-01T18:44:38.779Z,99.90
2018-08-01T18:47:07.364Z,99.90
2018-08-01T18:49:35.958Z,99.90
2018-08-01T18:52:04.458Z,99.90
2018-08-01T18:54:32.950Z,99.90
2018-08-01T18:57:01.457Z,99.90
2018-08-01T18:59:29.949Z,99.90
2018-08-01T19:01:59.390Z,99.90
2018-08-01T19:04:28.355Z,99.90
2018-08-01T19:06:56.860Z,99.90
2018-08-01T19:09:25.626Z,99.90
2018-08-01T19:11:54.313Z,99.90
2018-08-01T19:14:23.266Z,99.90
2018-08-01T19:16:52.063Z,99.90
2018-08-01T19:19:20.726Z,99.90
2018-08-01T19:21:49.382Z,99.90
2018-08-01T19:24:18.093Z,99.90
2018-08-01T19:26:46.646Z,99.90
2018-08-01T19:29:15.190Z,99.90
2018-08-01T19:31:43.867Z,99.90
2018-08-01T19:34:12.587Z,99.90
2018-08-01T19:36:41.362Z,99.90
2018-08-01T19:39:10.950Z,99.90
2018-08-01T19:41:39.855Z,99.90
2018-08-01T19:44:08.447Z,99.90
2018-08-01T19:46:37.263Z,99.90
2018-08-01T19:49:06.274Z,99.90
2018-08-01T19:51:35.338Z,99.90
2018-08-01T19:54:05.004Z,99.90
2018-08-01T19:56:33.640Z,99.90
2018-08-01T19:59:01.603Z,99.90
2018-08-01T20:01:30.131Z,99.90
2018-08-01T20:03:58.714Z,99.90
2018-08-01T20:06:27.183Z,99.90
2018-08-01T20:08:55.749Z,99.90
2018-08-01T20:11:24.734Z,99.90
2018-08-01T20:13:59.916Z,99.90
2018-08-01T20:16:28.629Z,99.90
2018-08-01T20:18:58.093Z,99.90
2018-08-01T20:21:26.618Z,99.90
2018-08-01T20:23:55.354Z,99.90
2018-08-01T20:26:23.879Z,99.90
2018-08-01T20:28:52.455Z,99.90
2018-08-01T20:31:21.010Z,99.90
2018-08-01T20:33:49.598Z,99.90
2018-08-01T20:36:18.251Z,99.90
2018-08-01T20:38:46.746Z,99.90
2018-08-01T20:41:16.175Z,99.90
2018-08-01T20:43:45.102Z,99.90
2018-08-01T20:46:13.580Z,99.90
2018-08-01T20:48:42.118Z,99.90
2018-08-01T20:51:10.718Z,99.90
2018-08-01T20:53:39.310Z,99.90
2018-08-01T20:56:07.980Z,99.90
2018-08-01T20:58:36.491Z,99.90
2018-08-01T21:01:05.068Z,99.90
2018-08-01T21:03:33.566Z,99.90
2018-08-01T21:06:02.227Z,99.90
2018-08-01T21:08:30.876Z,99.90
2018-08-01T21:10:59.361Z,99.90
2018-08-01T21:13:27.886Z,99.90
2018-08-01T21:15:56.540Z,99.90
2018-08-01T21:18:25.013Z,99.90
2018-08-01T21:20:53.531Z,99.90
2018-08-01T21:23:22.056Z,99.90
2018-08-01T21:25:50.756Z,99.90
2018-08-01T21:28:19.305Z,99.90
2018-08-01T21:30:47.792Z,99.90
2018-08-01T21:33:16.354Z,99.90
2018-08-01T21:35:44.937Z,99.90
2018-08-01T21:38:13.392Z,1.00
2018-08-01T21:40:41.997Z,99.90
2018-08-01T21:43:10.465Z,1.00
2018-08-01T21:45:38.958Z,99.90
2018-08-01T21:48:07.454Z,1.00
2018-08-01T21:50:35.930Z,99.90
2018-08-01T21:53:04.441Z,1.00
2018-08-01T21:55:33.010Z,1.00
2018-08-01T21:58:01.557Z,1.00
2018-08-01T22:00:34.198Z,1.00
2018-08-01T22:03:02.707Z,1.00
2018-08-01T22:05:31.146Z,12.60
2018-08-01T22:07:59.599Z,53.20
2018-08-01T22:10:28.087Z,33.90
2018-08-01T22:12:56.538Z,32.30
2018-08-01T22:15:25.062Z,35.40
2018-08-01T22:17:53.631Z,27.70
2018-08-01T22:20:22.111Z,27.80
2018-08-01T22:22:50.595Z,33.20
2018-08-01T22:25:19.178Z,33.30
2018-08-01T22:27:47.656Z,47.40
2018-08-01T22:30:16.145Z,37.10
2018-08-01T22:32:44.615Z,48.80
2018-08-01T22:35:13.084Z,83.70
2018-08-01T22:37:41.550Z,93.50
2018-08-01T22:40:10.005Z,99.90
2018-08-01T22:42:38.585Z,99.90
2018-08-01T22:45:07.278Z,99.90
2018-08-01T22:47:35.732Z,99.90
2018-08-01T22:50:04.966Z,99.90
2018-08-01T22:52:33.572Z,99.90
2018-08-01T22:55:02.072Z,99.90
2018-08-01T22:57:31.087Z,99.90
2018-08-01T22:59:59.648Z,99.90
2018-08-01T23:02:28.144Z,99.90
2018-08-01T23:04:56.616Z,99.90
2018-08-01T23:07:25.095Z,99.90
2018-08-01T23:09:53.768Z,99.90
2018-08-01T23:12:22.263Z,99.90
2018-08-01T23:14:50.718Z,99.90
2018-08-01T23:17:19.203Z,99.90
2018-08-01T23:19:47.847Z,99.90
2018-08-01T23:22:16.451Z,99.90
2018-08-01T23:24:45.027Z,99.90
2018-08-01T23:27:13.498Z,99.90
2018-08-01T23:29:42.081Z,99.90
2018-08-01T23:32:10.566Z,99.90
2018-08-01T23:34:39.019Z,99.90
2018-08-01T23:37:07.504Z,99.90
2018-08-01T23:39:36.111Z,99.90
2018-08-01T23:42:04.778Z,99.90
2018-08-01T23:44:33.288Z,99.90
2018-08-01T23:47:01.784Z,99.90
2018-08-01T23:49:30.281Z,99.90
2018-08-01T23:54:26.855Z,99.90
2018-08-01T23:56:55.302Z,99.90
2018-08-01T23:59:23.799Z,99.90
